sensor_id;sensor_type;location;lat;lon;timestamp;pressure;altitude;pressure_sealevel;temperature;humidity
10099;BME280;5089;42.656;23.374;2023-03-19T00:00:19;95226.66;;;5.49;49.62
10099;BME280;5089;42.656;23.374;2023-03-19T00:02:46;95372.84;;;6.40;49.79
10099;BME280;5089;42.656;23.374;2023-03-19T00:05:17;95319.44;;;6.17;50.08
10099;BME280;5089;42.656;23.374;2023-03-19T00:07:44;95221.88;;;5.51;49.55
10099;BME280;5089;42.656;23.374;2023-03-19T00:10:11;95301.34;;;5.96;50.35
10099;BME280;5089;42.656;23.374;2023-03-19T00:12:38;95311.34;;;6.00;50.28
10099;BME280;5089;42.656;23.374;2023-03-19T00:15:06;95355.53;;;6.31;51.06
10099;BME280;5089;42.656;23.374;2023-03-19T00:17:33;95267.22;;;5.75;50.90
10099;BME280;5089;42.656;23.374;2023-03-19T00:20:00;95351.00;;;6.20;51.58
10099;BME280;5089;42.656;23.374;2023-03-19T00:22:28;95251.47;;;5.62;51.37
10099;BME280;5089;42.656;23.374;2023-03-19T00:24:55;95315.28;;;5.98;51.46
10099;BME280;5089;42.656;23.374;2023-03-19T00:27:22;95271.97;;;5.73;51.70
10099;BME280;5089;42.656;23.374;2023-03-19T00:29:49;95316.88;;;5.99;51.71
10099;BME280;5089;42.656;23.374;2023-03-19T00:32:15;95278.59;;;5.59;51.47
10099;BME280;5089;42.656;23.374;2023-03-19T00:34:42;95329.19;;;6.00;51.27
10099;BME280;5089;42.656;23.374;2023-03-19T00:37:10;95249.81;;;5.37;51.45
10099;BME280;5089;42.656;23.374;2023-03-19T00:39:39;95308.97;;;5.69;50.99
10099;BME280;5089;42.656;23.374;2023-03-19T00:42:06;95334.75;;;5.87;50.67
10099;BME280;5089;42.656;23.374;2023-03-19T00:44:33;95339.38;;;5.80;50.71
10099;BME280;5089;42.656;23.374;2023-03-19T00:47:00;95332.28;;;5.74;50.92
10099;BME280;5089;42.656;23.374;2023-03-19T00:49:27;95324.75;;;5.71;50.31
10099;BME280;5089;42.656;23.374;2023-03-19T00:51:54;95306.28;;;5.58;50.66
10099;BME280;5089;42.656;23.374;2023-03-19T00:54:21;95310.78;;;5.45;50.48
10099;BME280;5089;42.656;23.374;2023-03-19T00:56:50;95340.03;;;5.64;50.86
10099;BME280;5089;42.656;23.374;2023-03-19T00:59:17;95278.16;;;5.32;51.76
10099;BME280;5089;42.656;23.374;2023-03-19T01:01:44;95306.47;;;5.44;51.71
10099;BME280;5089;42.656;23.374;2023-03-19T01:04:11;95297.78;;;5.37;51.56
10099;BME280;5089;42.656;23.374;2023-03-19T01:06:39;95324.22;;;5.50;52.02
10099;BME280;5089;42.656;23.374;2023-03-19T01:09:06;95323.78;;;5.53;51.49
10099;BME280;5089;42.656;23.374;2023-03-19T01:11:33;95298.72;;;5.31;51.18
10099;BME280;5089;42.656;23.374;2023-03-19T01:14:02;95329.09;;;5.53;50.92
10099;BME280;5089;42.656;23.374;2023-03-19T01:16:29;95302.53;;;5.47;50.93
10099;BME280;5089;42.656;23.374;2023-03-19T01:18:56;95290.63;;;5.49;51.28
10099;BME280;5089;42.656;23.374;2023-03-19T01:21:24;95313.00;;;5.60;51.35
10099;BME280;5089;42.656;23.374;2023-03-19T01:23:51;95239.91;;;5.15;52.00
10099;BME280;5089;42.656;23.374;2023-03-19T01:26:18;95308.50;;;5.61;51.71
10099;BME280;5089;42.656;23.374;2023-03-19T01:28:45;95263.59;;;5.34;51.88
10099;BME280;5089;42.656;23.374;2023-03-19T01:31:14;95261.28;;;5.38;52.29
10099;BME280;5089;42.656;23.374;2023-03-19T01:33:41;95258.84;;;5.36;51.69
10099;BME280;5089;42.656;23.374;2023-03-19T01:36:09;95235.66;;;5.25;52.17
10099;BME280;5089;42.656;23.374;2023-03-19T01:38:36;95311.88;;;5.68;52.21
10099;BME280;5089;42.656;23.374;2023-03-19T01:41:04;95275.19;;;5.40;51.33
10099;BME280;5089;42.656;23.374;2023-03-19T01:43:31;95319.72;;;5.63;51.49
10099;BME280;5089;42.656;23.374;2023-03-19T01:45:59;95279.97;;;5.49;51.05
10099;BME280;5089;42.656;23.374;2023-03-19T01:48:36;95223.56;;;5.11;50.71
10099;BME280;5089;42.656;23.374;2023-03-19T01:51:04;95286.09;;;5.50;51.53
10099;BME280;5089;42.656;23.374;2023-03-19T01:53:33;95297.25;;;5.59;52.00
10099;BME280;5089;42.656;23.374;2023-03-19T01:56:03;95303.13;;;5.37;52.58
10099;BME280;5089;42.656;23.374;2023-03-19T01:58:32;95305.34;;;5.52;52.47
10099;BME280;5089;42.656;23.374;2023-03-19T02:01:00;95271.69;;;5.28;52.08
10099;BME280;5089;42.656;23.374;2023-03-19T02:03:29;95273.97;;;5.13;52.29
10099;BME280;5089;42.656;23.374;2023-03-19T02:05:58;95313.19;;;5.35;52.72
10099;BME280;5089;42.656;23.374;2023-03-19T02:08:26;95250.69;;;4.78;52.55
10099;BME280;5089;42.656;23.374;2023-03-19T02:10:54;95286.94;;;5.09;52.59
10099;BME280;5089;42.656;23.374;2023-03-19T02:13:24;95306.78;;;5.13;52.94
10099;BME280;5089;42.656;23.374;2023-03-19T02:15:52;95228.41;;;4.61;53.22
10099;BME280;5089;42.656;23.374;2023-03-19T02:18:21;95281.34;;;4.99;53.86
10099;BME280;5089;42.656;23.374;2023-03-19T02:20:56;95258.72;;;4.90;53.94
10099;BME280;5089;42.656;23.374;2023-03-19T02:23:31;95310.00;;;5.15;53.80
10099;BME280;5089;42.656;23.374;2023-03-19T02:26:06;95293.72;;;4.93;53.94
10099;BME280;5089;42.656;23.374;2023-03-19T02:28:36;95323.44;;;5.20;54.26
10099;BME280;5089;42.656;23.374;2023-03-19T02:31:05;95324.16;;;5.16;54.06
10099;BME280;5089;42.656;23.374;2023-03-19T02:33:32;95284.44;;;4.96;54.36
10099;BME280;5089;42.656;23.374;2023-03-19T02:36:01;95326.44;;;5.12;54.08
10099;BME280;5089;42.656;23.374;2023-03-19T02:38:30;95298.22;;;4.93;54.08
10099;BME280;5089;42.656;23.374;2023-03-19T02:41:00;95324.94;;;5.05;53.93
10099;BME280;5089;42.656;23.374;2023-03-19T02:43:31;95260.28;;;4.68;53.21
10099;BME280;5089;42.656;23.374;2023-03-19T02:45:59;95284.06;;;4.81;52.64
10099;BME280;5089;42.656;23.374;2023-03-19T02:48:27;95310.22;;;4.84;52.33
10099;BME280;5089;42.656;23.374;2023-03-19T02:50:54;95306.88;;;4.77;51.90
10099;BME280;5089;42.656;23.374;2023-03-19T02:53:22;95293.25;;;4.67;52.33
10099;BME280;5089;42.656;23.374;2023-03-19T02:55:49;95231.88;;;4.32;52.07
10099;BME280;5089;42.656;23.374;2023-03-19T02:58:16;95304.94;;;4.66;52.69
10099;BME280;5089;42.656;23.374;2023-03-19T03:00:45;95312.91;;;4.84;53.04
10099;BME280;5089;42.656;23.374;2023-03-19T03:03:12;95233.72;;;4.31;53.00
10099;BME280;5089;42.656;23.374;2023-03-19T03:05:39;95280.09;;;4.54;53.50
10099;BME280;5089;42.656;23.374;2023-03-19T03:08:06;95223.84;;;4.02;53.83
10099;BME280;5089;42.656;23.374;2023-03-19T03:10:33;95321.88;;;4.71;53.89
10099;BME280;5089;42.656;23.374;2023-03-19T03:13:01;95301.13;;;4.62;54.33
10099;BME280;5089;42.656;23.374;2023-03-19T03:15:30;95282.63;;;4.49;54.33
10099;BME280;5089;42.656;23.374;2023-03-19T03:17:59;95323.28;;;4.74;54.76
10099;BME280;5089;42.656;23.374;2023-03-19T03:20:28;95336.22;;;4.70;54.66
10099;BME280;5089;42.656;23.374;2023-03-19T03:22:55;95328.75;;;4.61;54.96
10099;BME280;5089;42.656;23.374;2023-03-19T03:25:22;95285.44;;;4.35;54.98
10099;BME280;5089;42.656;23.374;2023-03-19T03:27:49;95296.97;;;4.48;55.33
10099;BME280;5089;42.656;23.374;2023-03-19T03:30:16;95338.31;;;4.68;55.37
10099;BME280;5089;42.656;23.374;2023-03-19T03:32:43;95345.47;;;4.68;55.59
10099;BME280;5089;42.656;23.374;2023-03-19T03:35:12;95339.34;;;4.67;55.87
10099;BME280;5089;42.656;23.374;2023-03-19T03:37:46;95341.41;;;4.65;55.94
10099;BME280;5089;42.656;23.374;2023-03-19T03:40:13;95257.69;;;4.13;56.23
10099;BME280;5089;42.656;23.374;2023-03-19T03:42:40;95364.31;;;4.66;56.20
10099;BME280;5089;42.656;23.374;2023-03-19T03:45:09;95338.38;;;4.62;55.88
10099;BME280;5089;42.656;23.374;2023-03-19T03:47:36;95355.69;;;4.71;55.52
10099;BME280;5089;42.656;23.374;2023-03-19T03:50:04;95331.75;;;4.53;55.63
10099;BME280;5089;42.656;23.374;2023-03-19T03:52:33;95339.28;;;4.56;55.43
10099;BME280;5089;42.656;23.374;2023-03-19T03:55:00;95249.34;;;4.10;55.63
10099;BME280;5089;42.656;23.374;2023-03-19T03:57:28;95354.03;;;4.70;56.01
10099;BME280;5089;42.656;23.374;2023-03-19T03:59:55;95350.81;;;4.68;55.83
10099;BME280;5089;42.656;23.374;2023-03-19T04:02:22;95368.19;;;4.70;55.85
10099;BME280;5089;42.656;23.374;2023-03-19T04:04:49;95341.94;;;4.56;55.76
10099;BME280;5089;42.656;23.374;2023-03-19T04:07:17;95350.34;;;4.71;55.84
10099;BME280;5089;42.656;23.374;2023-03-19T04:09:46;95343.84;;;4.67;55.66
10099;BME280;5089;42.656;23.374;2023-03-19T04:12:13;95247.94;;;4.07;55.90
10099;BME280;5089;42.656;23.374;2023-03-19T04:14:40;95357.75;;;4.69;56.01
10099;BME280;5089;42.656;23.374;2023-03-19T04:17:07;95339.09;;;4.69;56.38
10099;BME280;5089;42.656;23.374;2023-03-19T04:19:34;95345.03;;;4.71;56.29
10099;BME280;5089;42.656;23.374;2023-03-19T04:22:01;95272.91;;;4.24;56.66
10099;BME280;5089;42.656;23.374;2023-03-19T04:24:29;95272.69;;;4.26;56.45
10099;BME280;5089;42.656;23.374;2023-03-19T04:26:59;95356.41;;;4.60;56.45
10099;BME280;5089;42.656;23.374;2023-03-19T04:29:26;95360.72;;;4.61;56.50
10099;BME280;5089;42.656;23.374;2023-03-19T04:31:53;95336.91;;;4.48;56.83
10099;BME280;5089;42.656;23.374;2023-03-19T04:34:20;95329.66;;;4.36;55.81
10099;BME280;5089;42.656;23.374;2023-03-19T04:36:47;95360.84;;;4.48;55.96
10099;BME280;5089;42.656;23.374;2023-03-19T04:39:16;95325.81;;;4.32;54.86
10099;BME280;5089;42.656;23.374;2023-03-19T04:41:44;95370.34;;;4.43;55.24
10099;BME280;5089;42.656;23.374;2023-03-19T04:44:13;95372.81;;;4.38;55.44
10099;BME280;5089;42.656;23.374;2023-03-19T04:46:40;95344.28;;;4.27;55.35
10099;BME280;5089;42.656;23.374;2023-03-19T04:49:09;95374.13;;;4.29;55.11
10099;BME280;5089;42.656;23.374;2023-03-19T04:51:36;95319.13;;;4.05;55.35
10099;BME280;5089;42.656;23.374;2023-03-19T04:54:03;95352.22;;;4.34;55.75
10099;BME280;5089;42.656;23.374;2023-03-19T04:56:31;95355.69;;;4.34;55.65
10099;BME280;5089;42.656;23.374;2023-03-19T04:58:58;95327.56;;;4.20;55.34
10099;BME280;5089;42.656;23.374;2023-03-19T05:01:26;95368.53;;;4.19;54.84
10099;BME280;5089;42.656;23.374;2023-03-19T05:03:53;95309.91;;;3.90;54.36
10099;BME280;5089;42.656;23.374;2023-03-19T05:06:20;95356.41;;;4.23;54.16
10099;BME280;5089;42.656;23.374;2023-03-19T05:08:48;95313.22;;;3.85;54.70
10099;BME280;5089;42.656;23.374;2023-03-19T05:11:15;95307.31;;;3.83;55.17
10099;BME280;5089;42.656;23.374;2023-03-19T05:13:43;95328.16;;;4.04;54.99
10099;BME280;5089;42.656;23.374;2023-03-19T05:16:11;95327.28;;;4.10;55.07
10099;BME280;5089;42.656;23.374;2023-03-19T05:18:39;95343.53;;;4.20;55.28
10099;BME280;5089;42.656;23.374;2023-03-19T05:21:10;95339.41;;;4.24;55.59
10099;BME280;5089;42.656;23.374;2023-03-19T05:23:38;95366.34;;;4.34;55.62
10099;BME280;5089;42.656;23.374;2023-03-19T05:26:05;95370.25;;;4.50;55.56
10099;BME280;5089;42.656;23.374;2023-03-19T05:28:33;95295.06;;;4.18;55.76
10099;BME280;5089;42.656;23.374;2023-03-19T05:31:00;95330.09;;;4.52;55.69
10099;BME280;5089;42.656;23.374;2023-03-19T05:33:27;95368.25;;;4.82;55.47
10099;BME280;5089;42.656;23.374;2023-03-19T05:35:55;95378.94;;;4.93;54.89
10099;BME280;5089;42.656;23.374;2023-03-19T05:38:22;95279.53;;;4.52;54.75
10099;BME280;5089;42.656;23.374;2023-03-19T05:40:49;95329.66;;;5.03;54.57
10099;BME280;5089;42.656;23.374;2023-03-19T05:43:16;95241.59;;;4.56;54.29
10099;BME280;5089;42.656;23.374;2023-03-19T05:45:49;95365.97;;;5.57;53.80
10099;BME280;5089;42.656;23.374;2023-03-19T05:48:16;95304.72;;;5.38;53.13
10099;BME280;5089;42.656;23.374;2023-03-19T05:50:43;95352.00;;;5.84;52.31
10099;BME280;5089;42.656;23.374;2023-03-19T05:53:11;95367.47;;;5.94;52.90
10099;BME280;5089;42.656;23.374;2023-03-19T05:55:39;95347.06;;;5.88;52.06
10099;BME280;5089;42.656;23.374;2023-03-19T05:58:06;95364.34;;;6.20;51.79
10099;BME280;5089;42.656;23.374;2023-03-19T06:00:33;95369.81;;;6.48;51.32
10099;BME280;5089;42.656;23.374;2023-03-19T06:03:00;95354.19;;;6.69;50.78
10099;BME280;5089;42.656;23.374;2023-03-19T06:05:28;95335.81;;;6.84;50.13
10099;BME280;5089;42.656;23.374;2023-03-19T06:07:54;95342.31;;;6.88;49.56
10099;BME280;5089;42.656;23.374;2023-03-19T06:10:23;95327.34;;;7.15;48.35
10099;BME280;5089;42.656;23.374;2023-03-19T06:12:50;95355.22;;;7.47;48.63
10099;BME280;5089;42.656;23.374;2023-03-19T06:15:17;95283.41;;;7.11;47.42
10099;BME280;5089;42.656;23.374;2023-03-19T06:17:44;95326.25;;;7.44;47.38
10099;BME280;5089;42.656;23.374;2023-03-19T06:20:11;95353.78;;;7.73;46.94
10099;BME280;5089;42.656;23.374;2023-03-19T06:22:38;95353.72;;;7.85;47.11
10099;BME280;5089;42.656;23.374;2023-03-19T06:25:08;95336.69;;;7.91;46.82
10099;BME280;5089;42.656;23.374;2023-03-19T06:27:52;95291.75;;;7.93;46.09
10099;BME280;5089;42.656;23.374;2023-03-19T06:32:55;95352.22;;;8.60;45.75
10099;BME280;5089;42.656;23.374;2023-03-19T06:35:23;95300.09;;;8.30;44.95
10099;BME280;5089;42.656;23.374;2023-03-19T06:37:50;95340.91;;;8.97;44.14
10099;BME280;5089;42.656;23.374;2023-03-19T06:45:32;95357.06;;;9.50;42.36
10099;BME280;5089;42.656;23.374;2023-03-19T06:47:59;95381.97;;;9.72;42.65
10099;BME280;5089;42.656;23.374;2023-03-19T06:50:29;95378.34;;;9.88;41.55
10099;BME280;5089;42.656;23.374;2023-03-19T06:53:06;95347.81;;;9.94;41.19
10099;BME280;5089;42.656;23.374;2023-03-19T06:55:33;95380.88;;;10.27;40.49
10099;BME280;5089;42.656;23.374;2023-03-19T06:58:01;95326.41;;;10.05;40.58
10099;BME280;5089;42.656;23.374;2023-03-19T07:00:30;95366.47;;;10.43;49.61
10099;BME280;5089;42.656;23.374;2023-03-19T07:02:58;95313.25;;;10.40;41.46
10099;BME280;5089;42.656;23.374;2023-03-19T07:05:25;95290.69;;;10.36;39.65
10099;BME280;5089;42.656;23.374;2023-03-19T07:07:54;95318.25;;;10.63;39.10
10099;BME280;5089;42.656;23.374;2023-03-19T07:10:22;95358.69;;;10.88;38.81
10099;BME280;5089;42.656;23.374;2023-03-19T07:12:49;95373.81;;;10.99;38.90
10099;BME280;5089;42.656;23.374;2023-03-19T07:15:16;95363.59;;;11.01;38.52
10099;BME280;5089;42.656;23.374;2023-03-19T07:17:48;95353.41;;;11.09;38.61
10099;BME280;5089;42.656;23.374;2023-03-19T07:20:15;95385.25;;;11.27;38.65
10099;BME280;5089;42.656;23.374;2023-03-19T07:22:42;95350.25;;;11.27;38.22
10099;BME280;5089;42.656;23.374;2023-03-19T07:25:09;95381.03;;;11.61;37.65
10099;BME280;5089;42.656;23.374;2023-03-19T07:27:36;95379.44;;;11.60;37.67
10099;BME280;5089;42.656;23.374;2023-03-19T07:30:03;95366.00;;;11.70;37.72
10099;BME280;5089;42.656;23.374;2023-03-19T07:32:31;95366.63;;;12.38;36.58
10099;BME280;5089;42.656;23.374;2023-03-19T07:35:03;95348.28;;;12.60;35.25
10099;BME280;5089;42.656;23.374;2023-03-19T07:37:30;95257.78;;;12.08;35.96
10099;BME280;5089;42.656;23.374;2023-03-19T07:39:57;95268.81;;;12.17;35.85
10099;BME280;5089;42.656;23.374;2023-03-19T07:42:24;95286.31;;;12.15;36.18
10099;BME280;5089;42.656;23.374;2023-03-19T07:44:51;95362.56;;;12.50;36.28
10099;BME280;5089;42.656;23.374;2023-03-19T07:47:18;95359.06;;;12.60;35.69
10099;BME280;5089;42.656;23.374;2023-03-19T07:49:45;95370.38;;;12.47;35.56
10099;BME280;5089;42.656;23.374;2023-03-19T07:52:13;95374.69;;;12.53;36.58
10099;BME280;5089;42.656;23.374;2023-03-19T07:54:40;95370.38;;;12.72;36.37
10099;BME280;5089;42.656;23.374;2023-03-19T07:57:08;95355.81;;;12.58;36.02
10099;BME280;5089;42.656;23.374;2023-03-19T07:59:35;95370.38;;;12.72;36.15
10099;BME280;5089;42.656;23.374;2023-03-19T08:02:02;95301.38;;;12.41;35.92
10099;BME280;5089;42.656;23.374;2023-03-19T08:04:29;95361.41;;;12.82;35.72
10099;BME280;5089;42.656;23.374;2023-03-19T08:06:56;95357.91;;;12.86;35.79
10099;BME280;5089;42.656;23.374;2023-03-19T08:09:24;95249.09;;;12.32;34.77
10099;BME280;5089;42.656;23.374;2023-03-19T08:11:52;95357.91;;;12.86;34.62
10099;BME280;5089;42.656;23.374;2023-03-19T08:14:19;95344.41;;;12.91;35.93
10099;BME280;5089;42.656;23.374;2023-03-19T08:16:49;95352.75;;;13.00;35.86
10099;BME280;5089;42.656;23.374;2023-03-19T08:19:16;95367.56;;;13.12;35.63
10099;BME280;5089;42.656;23.374;2023-03-19T08:21:43;95315.31;;;12.83;35.26
10099;BME280;5089;42.656;23.374;2023-03-19T08:24:10;95366.44;;;13.29;35.16
10099;BME280;5089;42.656;23.374;2023-03-19T08:26:40;95363.72;;;13.34;34.88
10099;BME280;5089;42.656;23.374;2023-03-19T08:29:07;95362.38;;;13.31;34.47
10099;BME280;5089;42.656;23.374;2023-03-19T08:34:08;95361.56;;;13.31;34.26
10099;BME280;5089;42.656;23.374;2023-03-19T08:36:36;95333.56;;;13.11;33.47
10099;BME280;5089;42.656;23.374;2023-03-19T08:39:03;95309.00;;;13.03;33.58
10099;BME280;5089;42.656;23.374;2023-03-19T08:41:32;95356.06;;;13.51;34.37
10099;BME280;5089;42.656;23.374;2023-03-19T08:44:05;95304.72;;;13.61;34.29
10099;BME280;5089;42.656;23.374;2023-03-19T08:46:32;95358.28;;;14.26;33.66
10099;BME280;5089;42.656;23.374;2023-03-19T08:49:01;95359.72;;;14.53;32.79
10099;BME280;5089;42.656;23.374;2023-03-19T08:51:34;95280.91;;;14.30;32.50
10099;BME280;5089;42.656;23.374;2023-03-19T08:54:01;95320.41;;;14.89;32.20
10099;BME280;5089;42.656;23.374;2023-03-19T08:56:28;95315.56;;;15.10;31.37
10099;BME280;5089;42.656;23.374;2023-03-19T08:58:55;95329.38;;;15.32;30.43
10099;BME280;5089;42.656;23.374;2023-03-19T09:01:24;95326.31;;;15.38;30.39
10099;BME280;5089;42.656;23.374;2023-03-19T09:03:51;95306.44;;;15.48;30.63
10099;BME280;5089;42.656;23.374;2023-03-19T09:06:18;95316.72;;;15.70;29.16
10099;BME280;5089;42.656;23.374;2023-03-19T09:14:42;95311.88;;;15.24;28.84
10099;BME280;5089;42.656;23.374;2023-03-19T09:20:43;95263.91;;;15.86;29.19
10099;BME280;5089;42.656;23.374;2023-03-19T09:36:06;95280.91;;;19.07;24.43
10099;BME280;5089;42.656;23.374;2023-03-19T09:38:33;95238.84;;;18.29;24.68
10099;BME280;5089;42.656;23.374;2023-03-19T09:41:07;95302.31;;;18.38;25.47
10099;BME280;5089;42.656;23.374;2023-03-19T09:46:29;95301.19;;;18.61;25.38
10099;BME280;5089;42.656;23.374;2023-03-19T09:49:03;95299.06;;;18.81;25.72
10099;BME280;5089;42.656;23.374;2023-03-19T09:51:39;95163.69;;;18.11;25.43
10099;BME280;5089;42.656;23.374;2023-03-19T09:54:19;95281.41;;;19.00;25.20
10099;BME280;5089;42.656;23.374;2023-03-19T09:56:48;95293.63;;;19.20;25.21
10099;BME280;5089;42.656;23.374;2023-03-19T09:59:15;95206.53;;;18.98;25.10
10099;BME280;5089;42.656;23.374;2023-03-19T10:01:49;95230.88;;;19.42;24.53
10099;BME280;5089;42.656;23.374;2023-03-19T10:07:23;95224.34;;;19.78;23.51
10099;BME280;5089;42.656;23.374;2023-03-19T10:10:02;95262.03;;;20.10;23.79
10099;BME280;5089;42.656;23.374;2023-03-19T10:12:44;95208.63;;;19.57;23.52
10099;BME280;5089;42.656;23.374;2023-03-19T10:15:19;95259.63;;;19.65;24.11
10099;BME280;5089;42.656;23.374;2023-03-19T10:17:56;95253.53;;;19.68;24.08
10099;BME280;5089;42.656;23.374;2023-03-19T10:20:35;95235.56;;;19.76;23.33
10099;BME280;5089;42.656;23.374;2023-03-19T10:23:20;95255.47;;;19.94;23.16
10099;BME280;5089;42.656;23.374;2023-03-19T10:25:53;95248.41;;;19.84;23.86
10099;BME280;5089;42.656;23.374;2023-03-19T10:28:21;95233.00;;;19.80;23.17
10099;BME280;5089;42.656;23.374;2023-03-19T10:30:53;95233.47;;;19.99;23.17
10099;BME280;5089;42.656;23.374;2023-03-19T10:33:24;95224.47;;;19.55;23.24
10099;BME280;5089;42.656;23.374;2023-03-19T10:35:57;95227.88;;;19.69;23.95
10099;BME280;5089;42.656;23.374;2023-03-19T10:38:28;95222.75;;;19.94;23.43
10099;BME280;5089;42.656;23.374;2023-03-19T10:41:14;95191.94;;;19.85;23.38
10099;BME280;5089;42.656;23.374;2023-03-19T10:43:48;95208.75;;;19.95;23.33
10099;BME280;5089;42.656;23.374;2023-03-19T10:48:56;95090.88;;;19.55;28.91
10099;BME280;5089;42.656;23.374;2023-03-19T10:51:25;95215.97;;;20.34;23.46
10099;BME280;5089;42.656;23.374;2023-03-19T10:54:14;95192.16;;;20.43;24.37
10099;BME280;5089;42.656;23.374;2023-03-19T10:56:50;95146.59;;;20.35;23.32
10099;BME280;5089;42.656;23.374;2023-03-19T10:59:36;95114.94;;;20.43;24.81
10099;BME280;5089;42.656;23.374;2023-03-19T11:02:15;95063.28;;;20.29;24.10
10099;BME280;5089;42.656;23.374;2023-03-19T11:04:45;95183.31;;;21.22;23.46
10099;BME280;5089;42.656;23.374;2023-03-19T11:07:19;95148.00;;;21.17;23.35
10099;BME280;5089;42.656;23.374;2023-03-19T11:10:11;95063.84;;;20.72;22.73
10099;BME280;5089;42.656;23.374;2023-03-19T11:13:06;95088.13;;;20.95;22.22
10099;BME280;5089;42.656;23.374;2023-03-19T11:15:58;95069.06;;;20.86;23.90
10099;BME280;5089;42.656;23.374;2023-03-19T11:18:28;95034.66;;;20.85;22.26
10099;BME280;5089;42.656;23.374;2023-03-19T11:20:59;95148.88;;;21.50;22.55
10099;BME280;5089;42.656;23.374;2023-03-19T11:23:28;95098.84;;;21.08;22.88
10099;BME280;5089;42.656;23.374;2023-03-19T11:25:59;95144.31;;;21.33;23.52
10099;BME280;5089;42.656;23.374;2023-03-19T11:28:27;95134.84;;;21.31;24.76
10099;BME280;5089;42.656;23.374;2023-03-19T11:31:01;95140.53;;;21.26;23.34
10099;BME280;5089;42.656;23.374;2023-03-19T11:33:55;95123.09;;;20.51;22.51
10099;BME280;5089;42.656;23.374;2023-03-19T11:36:28;95132.19;;;20.09;23.27
10099;BME280;5089;42.656;23.374;2023-03-19T11:39:14;95073.34;;;19.73;26.75
10099;BME280;5089;42.656;23.374;2023-03-19T11:44:39;95084.38;;;20.03;25.17
10099;BME280;5089;42.656;23.374;2023-03-19T11:47:16;95108.38;;;20.35;24.19
10099;BME280;5089;42.656;23.374;2023-03-19T11:49:57;95090.09;;;20.27;29.96
10099;BME280;5089;42.656;23.374;2023-03-19T11:52:35;94996.06;;;19.69;27.40
10099;BME280;5089;42.656;23.374;2023-03-19T11:55:16;95087.19;;;20.32;23.84
10099;BME280;5089;42.656;23.374;2023-03-19T11:57:59;95057.78;;;19.91;23.64
10099;BME280;5089;42.656;23.374;2023-03-19T12:00:35;95028.28;;;19.67;26.00
10099;BME280;5089;42.656;23.374;2023-03-19T12:06:19;95085.66;;;20.05;25.05
10099;BME280;5089;42.656;23.374;2023-03-19T12:14:21;95049.78;;;19.78;24.76
10099;BME280;5089;42.656;23.374;2023-03-19T12:16:58;95067.03;;;19.99;33.47
10099;BME280;5089;42.656;23.374;2023-03-19T12:19:46;95050.44;;;20.21;37.06
10099;BME280;5089;42.656;23.374;2023-03-19T12:22:24;95064.88;;;20.59;35.07
10099;BME280;5089;42.656;23.374;2023-03-19T12:25:08;95047.25;;;20.57;25.65
10099;BME280;5089;42.656;23.374;2023-03-19T12:27:50;95056.41;;;20.52;23.44
10099;BME280;5089;42.656;23.374;2023-03-19T12:30:28;95071.81;;;20.28;23.40
10099;BME280;5089;42.656;23.374;2023-03-19T12:33:16;95017.91;;;19.61;23.69
10099;BME280;5089;42.656;23.374;2023-03-19T12:35:47;95052.88;;;19.50;24.03
10099;BME280;5089;42.656;23.374;2023-03-19T12:38:19;95074.16;;;19.31;24.64
10099;BME280;5089;42.656;23.374;2023-03-19T12:40:51;95019.06;;;19.00;24.42
10099;BME280;5089;42.656;23.374;2023-03-19T12:43:25;95054.47;;;19.26;24.71
10099;BME280;5089;42.656;23.374;2023-03-19T12:45:57;94969.22;;;18.91;24.75
10099;BME280;5089;42.656;23.374;2023-03-19T12:48:28;95000.63;;;19.05;24.97
10099;BME280;5089;42.656;23.374;2023-03-19T12:51:02;95027.72;;;19.28;24.70
10099;BME280;5089;42.656;23.374;2023-03-19T12:53:39;94990.06;;;19.12;24.79
10099;BME280;5089;42.656;23.374;2023-03-19T12:56:12;95044.69;;;19.33;25.21
10099;BME280;5089;42.656;23.374;2023-03-19T12:58:50;95024.66;;;19.21;25.28
10099;BME280;5089;42.656;23.374;2023-03-19T13:01:38;94936.06;;;18.72;25.50
10099;BME280;5089;42.656;23.374;2023-03-19T13:04:09;95004.63;;;19.08;25.66
10099;BME280;5089;42.656;23.374;2023-03-19T13:06:43;95035.56;;;19.29;25.21
10099;BME280;5089;42.656;23.374;2023-03-19T13:09:17;94984.78;;;18.82;25.42
10099;BME280;5089;42.656;23.374;2023-03-19T13:11:49;94994.56;;;18.91;25.34
10099;BME280;5089;42.656;23.374;2023-03-19T13:14:21;95010.56;;;19.01;25.44
10099;BME280;5089;42.656;23.374;2023-03-19T13:16:58;94897.91;;;18.37;25.53
10099;BME280;5089;42.656;23.374;2023-03-19T13:19:36;95013.75;;;19.21;25.66
10099;BME280;5089;42.656;23.374;2023-03-19T13:22:09;94994.06;;;19.06;25.97
10099;BME280;5089;42.656;23.374;2023-03-19T13:24:38;95019.03;;;19.34;25.36
10099;BME280;5089;42.656;23.374;2023-03-19T13:27:11;94908.22;;;18.57;25.44
10099;BME280;5089;42.656;23.374;2023-03-19T13:30:15;95011.69;;;19.09;25.43
10099;BME280;5089;42.656;23.374;2023-03-19T13:32:47;95000.16;;;19.03;26.02
10099;BME280;5089;42.656;23.374;2023-03-19T13:35:30;95007.34;;;19.08;25.76
10099;BME280;5089;42.656;23.374;2023-03-19T13:38:03;94983.00;;;18.94;26.48
10099;BME280;5089;42.656;23.374;2023-03-19T13:40:42;95003.00;;;19.07;26.37
10099;BME280;5089;42.656;23.374;2023-03-19T13:46:45;94996.47;;;18.91;26.06
10099;BME280;5089;42.656;23.374;2023-03-19T13:49:33;94939.06;;;18.44;26.23
10099;BME280;5089;42.656;23.374;2023-03-19T13:55:28;94988.91;;;18.53;26.33
10099;BME280;5089;42.656;23.374;2023-03-19T13:58:05;94927.00;;;17.94;26.75
10099;BME280;5089;42.656;23.374;2023-03-19T14:00:56;94966.41;;;18.22;26.75
10099;BME280;5089;42.656;23.374;2023-03-19T14:03:25;94947.97;;;18.10;26.76
10099;BME280;5089;42.656;23.374;2023-03-19T14:05:55;94922.53;;;17.98;26.98
10099;BME280;5089;42.656;23.374;2023-03-19T14:08:26;94941.72;;;18.10;26.91
10099;BME280;5089;42.656;23.374;2023-03-19T14:10:55;94984.69;;;18.39;27.41
10099;BME280;5089;42.656;23.374;2023-03-19T14:13:32;94952.47;;;18.15;27.18
10099;BME280;5089;42.656;23.374;2023-03-19T14:16:10;94957.75;;;18.12;27.02
10099;BME280;5089;42.656;23.374;2023-03-19T14:18:42;94897.97;;;17.72;27.49
10099;BME280;5089;42.656;23.374;2023-03-19T14:21:16;94987.53;;;18.25;27.25